sensor_id;sensor_type;location;lat;lon;timestamp;pressure;altitude;pressure_sealevel;temperature;humidity
77019;BME280;66044;53.142;17.962;2024-03-02T00:00:51;100615.29;;;8.53;79.57
77019;BME280;66044;53.142;17.962;2024-03-02T00:03:41;100606.84;;;8.51;79.67
77019;BME280;66044;53.142;17.962;2024-03-02T00:06:08;100604.16;;;8.51;79.77
77019;BME280;66044;53.142;17.962;2024-03-02T00:08:34;100600.86;;;8.50;79.65
77019;BME280;66044;53.142;17.962;2024-03-02T00:11:00;100603.70;;;8.49;79.71
77019;BME280;66044;53.142;17.962;2024-03-02T00:13:29;100601.14;;;8.46;79.88
77019;BME280;66044;53.142;17.962;2024-03-02T00:15:57;100608.09;;;8.45;79.80
77019;BME280;66044;53.142;17.962;2024-03-02T00:18:31;100604.73;;;8.43;79.90
77019;BME280;66044;53.142;17.962;2024-03-02T00:20:57;100609.92;;;8.41;79.89
77019;BME280;66044;53.142;17.962;2024-03-02T00:23:27;100613.79;;;8.39;80.22
77019;BME280;66044;53.142;17.962;2024-03-02T00:25:54;100609.73;;;8.36;80.21
77019;BME280;66044;53.142;17.962;2024-03-02T00:28:22;100609.03;;;8.33;80.22
77019;BME280;66044;53.142;17.962;2024-03-02T00:31:04;100605.08;;;8.31;80.23
77019;BME280;66044;53.142;17.962;2024-03-02T00:35:58;100598.96;;;8.28;80.54
77019;BME280;66044;53.142;17.962;2024-03-02T00:38:26;100595.02;;;8.28;80.59
77019;BME280;66044;53.142;17.962;2024-03-02T00:40:53;100592.46;;;8.26;80.69
77019;BME280;66044;53.142;17.962;2024-03-02T00:43:42;100597.63;;;8.26;80.69
77019;BME280;66044;53.142;17.962;2024-03-02T00:46:20;100600.06;;;8.24;81.01
77019;BME280;66044;53.142;17.962;2024-03-02T00:48:55;100604.92;;;8.22;80.70
77019;BME280;66044;53.142;17.962;2024-03-02T00:51:22;100601.16;;;8.19;80.82
77019;BME280;66044;53.142;17.962;2024-03-02T00:53:49;100595.62;;;8.19;81.07
77019;BME280;66044;53.142;17.962;2024-03-02T00:56:16;100600.60;;;8.19;81.41
77019;BME280;66044;53.142;17.962;2024-03-02T00:58:42;100597.66;;;8.18;80.92
77019;BME280;66044;53.142;17.962;2024-03-02T01:01:08;100595.27;;;8.18;81.13
77019;BME280;66044;53.142;17.962;2024-03-02T01:03:35;100595.35;;;8.16;81.31
77019;BME280;66044;53.142;17.962;2024-03-02T01:06:01;100589.52;;;8.14;81.27
77019;BME280;66044;53.142;17.962;2024-03-02T01:08:28;100584.85;;;8.12;81.47
77019;BME280;66044;53.142;17.962;2024-03-02T01:10:53;100583.09;;;8.12;81.43
77019;BME280;66044;53.142;17.962;2024-03-02T01:13:22;100581.86;;;8.12;81.42
77019;BME280;66044;53.142;17.962;2024-03-02T01:15:48;100581.31;;;8.10;81.27
77019;BME280;66044;53.142;17.962;2024-03-02T01:18:13;100575.25;;;8.08;81.41
77019;BME280;66044;53.142;17.962;2024-03-02T01:20:39;100573.85;;;8.06;81.69
77019;BME280;66044;53.142;17.962;2024-03-02T01:23:06;100567.77;;;8.05;81.56
77019;BME280;66044;53.142;17.962;2024-03-02T01:25:31;100563.04;;;8.04;81.74
77019;BME280;66044;53.142;17.962;2024-03-02T01:27:57;100561.90;;;8.04;81.73
77019;BME280;66044;53.142;17.962;2024-03-02T01:30:23;100560.67;;;8.03;81.63
77019;BME280;66044;53.142;17.962;2024-03-02T01:32:49;100564.09;;;8.03;81.68
77019;BME280;66044;53.142;17.962;2024-03-02T01:35:15;100562.56;;;8.03;81.63
77019;BME280;66044;53.142;17.962;2024-03-02T01:37:41;100548.59;;;8.02;81.57
77019;BME280;66044;53.142;17.962;2024-03-02T01:40:07;100543.38;;;8.00;81.84
77019;BME280;66044;53.142;17.962;2024-03-02T01:42:38;100544.69;;;7.99;81.73
77019;BME280;66044;53.142;17.962;2024-03-02T01:45:05;100548.55;;;7.98;81.84
77019;BME280;66044;53.142;17.962;2024-03-02T01:47:31;100552.37;;;7.98;81.80
77019;BME280;66044;53.142;17.962;2024-03-02T01:49:58;100549.98;;;7.97;81.65
77019;BME280;66044;53.142;17.962;2024-03-02T01:52:25;100551.79;;;7.96;82.03
77019;BME280;66044;53.142;17.962;2024-03-02T01:54:50;100553.60;;;7.96;82.34
77019;BME280;66044;53.142;17.962;2024-03-02T01:57:17;100547.63;;;7.94;81.90
77019;BME280;66044;53.142;17.962;2024-03-02T01:59:43;100547.70;;;7.93;82.10
77019;BME280;66044;53.142;17.962;2024-03-02T02:02:10;100549.48;;;7.92;81.84
77019;BME280;66044;53.142;17.962;2024-03-02T02:04:35;100548.92;;;7.90;81.98
77019;BME280;66044;53.142;17.962;2024-03-02T02:07:01;100549.52;;;7.88;81.78
77019;BME280;66044;53.142;17.962;2024-03-02T02:09:27;100547.69;;;7.86;82.01
77019;BME280;66044;53.142;17.962;2024-03-02T02:11:53;100542.33;;;7.84;82.07
77019;BME280;66044;53.142;17.962;2024-03-02T02:14:19;100541.85;;;7.83;82.02
77019;BME280;66044;53.142;17.962;2024-03-02T02:16:44;100542.48;;;7.79;82.08
77019;BME280;66044;53.142;17.962;2024-03-02T02:19:10;100539.85;;;7.75;81.80
77019;BME280;66044;53.142;17.962;2024-03-02T02:21:36;100541.11;;;7.73;82.00
77019;BME280;66044;53.142;17.962;2024-03-02T02:24:02;100537.12;;;7.70;82.11
77019;BME280;66044;53.142;17.962;2024-03-02T02:26:29;100542.68;;;7.66;82.20
77019;BME280;66044;53.142;17.962;2024-03-02T02:28:55;100544.95;;;7.63;82.47
77019;BME280;66044;53.142;17.962;2024-03-02T02:31:21;100546.58;;;7.60;82.42
77019;BME280;66044;53.142;17.962;2024-03-02T02:33:47;100543.67;;;7.57;82.37
77019;BME280;66044;53.142;17.962;2024-03-02T02:36:12;100550.73;;;7.55;82.56
77019;BME280;66044;53.142;17.962;2024-03-02T02:38:40;100549.34;;;7.53;82.53
77019;BME280;66044;53.142;17.962;2024-03-02T02:41:08;100542.82;;;7.51;82.57
77019;BME280;66044;53.142;17.962;2024-03-02T02:43:34;100534.45;;;7.51;82.62
77019;BME280;66044;53.142;17.962;2024-03-02T02:46:00;100535.02;;;7.49;82.74
77019;BME280;66044;53.142;17.962;2024-03-02T02:48:25;100537.83;;;7.45;82.85
77019;BME280;66044;53.142;17.962;2024-03-02T02:50:51;100543.20;;;7.42;82.70
77019;BME280;66044;53.142;17.962;2024-03-02T02:53:17;100544.24;;;7.38;82.72
77019;BME280;66044;53.142;17.962;2024-03-02T02:55:43;100542.48;;;7.35;82.67
77019;BME280;66044;53.142;17.962;2024-03-02T02:58:09;100541.98;;;7.31;82.70
77019;BME280;66044;53.142;17.962;2024-03-02T03:00:35;100546.79;;;7.28;82.71
77019;BME280;66044;53.142;17.962;2024-03-02T03:03:02;100544.77;;;7.25;82.56
77019;BME280;66044;53.142;17.962;2024-03-02T03:05:28;100537.63;;;7.20;82.73
77019;BME280;66044;53.142;17.962;2024-03-02T03:07:54;100536.23;;;7.16;82.54
77019;BME280;66044;53.142;17.962;2024-03-02T03:10:20;100535.60;;;7.12;82.74
77019;BME280;66044;53.142;17.962;2024-03-02T03:12:47;100540.73;;;7.09;82.98
77019;BME280;66044;53.142;17.962;2024-03-02T03:15:13;100542.30;;;7.04;83.04
77019;BME280;66044;53.142;17.962;2024-03-02T03:17:40;100540.00;;;7.03;82.92
77019;BME280;66044;53.142;17.962;2024-03-02T03:20:06;100541.48;;;7.00;83.02
77019;BME280;66044;53.142;17.962;2024-03-02T03:22:36;100545.57;;;6.99;83.11
77019;BME280;66044;53.142;17.962;2024-03-02T03:25:03;100543.34;;;6.99;83.35
77019;BME280;66044;53.142;17.962;2024-03-02T03:27:29;100539.14;;;6.98;83.11
77019;BME280;66044;53.142;17.962;2024-03-02T03:29:55;100537.24;;;6.99;83.34
77019;BME280;66044;53.142;17.962;2024-03-02T03:32:21;100535.58;;;6.99;83.30
77019;BME280;66044;53.142;17.962;2024-03-02T03:34:47;100533.39;;;7.02;83.28
77019;BME280;66044;53.142;17.962;2024-03-02T03:37:16;100532.06;;;7.04;83.28
77019;BME280;66044;53.142;17.962;2024-03-02T03:39:42;100530.77;;;7.07;83.62
77019;BME280;66044;53.142;17.962;2024-03-02T03:42:07;100532.72;;;7.09;83.28
77019;BME280;66044;53.142;17.962;2024-03-02T03:44:33;100531.08;;;7.11;83.47
77019;BME280;66044;53.142;17.962;2024-03-02T03:46:59;100529.60;;;7.14;83.36
77019;BME280;66044;53.142;17.962;2024-03-02T03:49:27;100526.73;;;7.15;83.10
77019;BME280;66044;53.142;17.962;2024-03-02T03:51:53;100525.89;;;7.15;83.26
77019;BME280;66044;53.142;17.962;2024-03-02T03:54:19;100527.06;;;7.15;83.51
77019;BME280;66044;53.142;17.962;2024-03-02T03:56:45;100529.76;;;7.14;83.03
77019;BME280;66044;53.142;17.962;2024-03-02T03:59:11;100530.93;;;7.13;83.14
77019;BME280;66044;53.142;17.962;2024-03-02T04:01:37;100523.73;;;7.13;83.09
77019;BME280;66044;53.142;17.962;2024-03-02T04:04:03;100523.13;;;7.13;83.46
77019;BME280;66044;53.142;17.962;2024-03-02T04:06:29;100526.25;;;7.12;83.40
77019;BME280;66044;53.142;17.962;2024-03-02T04:08:55;100522.19;;;7.12;83.54
77019;BME280;66044;53.142;17.962;2024-03-02T04:11:22;100517.65;;;7.12;83.22
77019;BME280;66044;53.142;17.962;2024-03-02T04:13:48;100513.76;;;7.12;82.90
77019;BME280;66044;53.142;17.962;2024-03-02T04:16:14;100515.45;;;7.10;83.18
77019;BME280;66044;53.142;17.962;2024-03-02T04:18:40;100513.30;;;7.11;83.18
77019;BME280;66044;53.142;17.962;2024-03-02T04:21:06;100515.73;;;7.10;82.99
77019;BME280;66044;53.142;17.962;2024-03-02T04:23:32;100516.84;;;7.10;83.09
77019;BME280;66044;53.142;17.962;2024-03-02T04:25:58;100514.02;;;7.09;83.01
77019;BME280;66044;53.142;17.962;2024-03-02T04:28:24;100515.66;;;7.10;83.06
77019;BME280;66044;53.142;17.962;2024-03-02T04:30:51;100511.64;;;7.11;83.11
77019;BME280;66044;53.142;17.962;2024-03-02T04:33:18;100508.31;;;7.11;83.13
77019;BME280;66044;53.142;17.962;2024-03-02T04:35:44;100512.19;;;7.12;83.01
77019;BME280;66044;53.142;17.962;2024-03-02T04:38:10;100510.39;;;7.11;83.20
77019;BME280;66044;53.142;17.962;2024-03-02T04:40:36;100515.67;;;7.12;82.72
77019;BME280;66044;53.142;17.962;2024-03-02T04:43:01;100510.88;;;7.14;82.61
77019;BME280;66044;53.142;17.962;2024-03-02T04:45:28;100506.00;;;7.14;82.64
77019;BME280;66044;53.142;17.962;2024-03-02T04:47:54;100519.48;;;7.13;82.76
77019;BME280;66044;53.142;17.962;2024-03-02T04:50:20;100521.75;;;7.13;82.92
77019;BME280;66044;53.142;17.962;2024-03-02T04:52:46;100517.38;;;7.12;82.85
77019;BME280;66044;53.142;17.962;2024-03-02T04:55:11;100532.20;;;7.13;83.01
77019;BME280;66044;53.142;17.962;2024-03-02T04:57:56;100538.48;;;7.13;82.73
77019;BME280;66044;53.142;17.962;2024-03-02T05:00:22;100536.48;;;7.13;82.61
77019;BME280;66044;53.142;17.962;2024-03-02T05:02:47;100543.77;;;7.14;82.60
77019;BME280;66044;53.142;17.962;2024-03-02T05:05:14;100534.15;;;7.15;83.06
77019;BME280;66044;53.142;17.962;2024-03-02T05:07:42;100535.62;;;7.17;82.80
77019;BME280;66044;53.142;17.962;2024-03-02T05:10:12;100535.20;;;7.19;82.70
77019;BME280;66044;53.142;17.962;2024-03-02T05:12:38;100542.97;;;7.20;82.83
77019;BME280;66044;53.142;17.962;2024-03-02T05:15:14;100545.64;;;7.22;82.55
77019;BME280;66044;53.142;17.962;2024-03-02T05:17:44;100547.63;;;7.24;82.74
77019;BME280;66044;53.142;17.962;2024-03-02T05:20:12;100546.04;;;7.25;82.52
77019;BME280;66044;53.142;17.962;2024-03-02T05:22:38;100554.70;;;7.27;82.70
77019;BME280;66044;53.142;17.962;2024-03-02T05:25:05;100553.14;;;7.28;82.65
77019;BME280;66044;53.142;17.962;2024-03-02T05:27:32;100551.86;;;7.29;82.47
77019;BME280;66044;53.142;17.962;2024-03-02T05:29:59;100552.85;;;7.30;82.55
77019;BME280;66044;53.142;17.962;2024-03-02T05:32:26;100548.02;;;7.31;82.27
77019;BME280;66044;53.142;17.962;2024-03-02T05:34:52;100550.89;;;7.32;82.48
77019;BME280;66044;53.142;17.962;2024-03-02T05:37:18;100552.48;;;7.32;82.50
77019;BME280;66044;53.142;17.962;2024-03-02T05:39:44;100552.05;;;7.30;82.28
77019;BME280;66044;53.142;17.962;2024-03-02T05:42:11;100556.65;;;7.28;82.46
77019;BME280;66044;53.142;17.962;2024-03-02T05:44:37;100557.97;;;7.27;82.24
77019;BME280;66044;53.142;17.962;2024-03-02T05:47:03;100558.09;;;7.27;82.53
77019;BME280;66044;53.142;17.962;2024-03-02T05:49:29;100560.45;;;7.26;82.59
77019;BME280;66044;53.142;17.962;2024-03-02T05:51:55;100571.21;;;7.28;82.67
77019;BME280;66044;53.142;17.962;2024-03-02T05:54:21;100567.79;;;7.28;82.43
77019;BME280;66044;53.142;17.962;2024-03-02T05:56:48;100573.52;;;7.27;82.20
77019;BME280;66044;53.142;17.962;2024-03-02T05:59:13;100578.14;;;7.26;81.94
77019;BME280;66044;53.142;17.962;2024-03-02T06:01:40;100583.50;;;7.25;82.16
77019;BME280;66044;53.142;17.962;2024-03-02T06:04:06;100583.78;;;7.25;82.34
77019;BME280;66044;53.142;17.962;2024-03-02T06:06:33;100583.27;;;7.24;82.55
77019;BME280;66044;53.142;17.962;2024-03-02T06:09:02;100587.28;;;7.23;82.14
77019;BME280;66044;53.142;17.962;2024-03-02T06:11:39;100593.02;;;7.22;82.50
77019;BME280;66044;53.142;17.962;2024-03-02T06:14:09;100589.42;;;7.23;82.50
77019;BME280;66044;53.142;17.962;2024-03-02T06:16:34;100588.48;;;7.24;82.26
77019;BME280;66044;53.142;17.962;2024-03-02T06:19:02;100591.42;;;7.25;82.24
77019;BME280;66044;53.142;17.962;2024-03-02T06:21:29;100591.29;;;7.25;82.34
77019;BME280;66044;53.142;17.962;2024-03-02T06:23:59;100592.70;;;7.27;82.41
77019;BME280;66044;53.142;17.962;2024-03-02T06:26:25;100593.86;;;7.29;82.27
77019;BME280;66044;53.142;17.962;2024-03-02T06:28:51;100595.67;;;7.32;82.66
77019;BME280;66044;53.142;17.962;2024-03-02T06:31:17;100591.16;;;7.33;82.51
77019;BME280;66044;53.142;17.962;2024-03-02T06:33:43;100589.36;;;7.35;82.55
77019;BME280;66044;53.142;17.962;2024-03-02T06:36:09;100589.33;;;7.36;82.29
77019;BME280;66044;53.142;17.962;2024-03-02T06:38:37;100594.50;;;7.37;82.22
77019;BME280;66044;53.142;17.962;2024-03-02T06:41:03;100600.27;;;7.38;82.16
77019;BME280;66044;53.142;17.962;2024-03-02T06:43:29;100602.21;;;7.37;82.48
77019;BME280;66044;53.142;17.962;2024-03-02T06:45:55;100597.43;;;7.38;82.07
77019;BME280;66044;53.142;17.962;2024-03-02T06:48:20;100594.16;;;7.38;82.20
77019;BME280;66044;53.142;17.962;2024-03-02T06:50:47;100594.64;;;7.39;82.28
77019;BME280;66044;53.142;17.962;2024-03-02T06:53:16;100587.48;;;7.41;82.22
77019;BME280;66044;53.142;17.962;2024-03-02T06:55:46;100586.32;;;7.43;82.15
77019;BME280;66044;53.142;17.962;2024-03-02T06:58:14;100583.61;;;7.46;82.14
77019;BME280;66044;53.142;17.962;2024-03-02T07:00:41;100586.08;;;7.51;82.09
77019;BME280;66044;53.142;17.962;2024-03-02T07:03:07;100579.73;;;7.56;82.51
77019;BME280;66044;53.142;17.962;2024-03-02T07:05:35;100578.70;;;7.62;82.08
77019;BME280;66044;53.142;17.962;2024-03-02T07:08:01;100578.64;;;7.69;82.07
77019;BME280;66044;53.142;17.962;2024-03-02T07:10:28;100585.58;;;7.73;81.78
77019;BME280;66044;53.142;17.962;2024-03-02T07:12:54;100585.84;;;7.77;81.70
77019;BME280;66044;53.142;17.962;2024-03-02T07:15:19;100582.17;;;7.80;81.65
77019;BME280;66044;53.142;17.962;2024-03-02T07:18:10;100604.38;;;7.84;81.65
77019;BME280;66044;53.142;17.962;2024-03-02T07:20:36;100613.86;;;7.85;81.63
77019;BME280;66044;53.142;17.962;2024-03-02T07:23:07;100610.55;;;7.87;81.49
77019;BME280;66044;53.142;17.962;2024-03-02T07:25:32;100611.81;;;7.90;81.37
77019;BME280;66044;53.142;17.962;2024-03-02T07:27:58;100611.89;;;7.93;81.26
77019;BME280;66044;53.142;17.962;2024-03-02T07:30:24;100602.59;;;7.96;81.31
77019;BME280;66044;53.142;17.962;2024-03-02T07:32:50;100600.26;;;8.02;81.30
77019;BME280;66044;53.142;17.962;2024-03-02T07:35:16;100599.31;;;8.06;81.00
77019;BME280;66044;53.142;17.962;2024-03-02T07:37:44;100602.89;;;8.10;80.94
77019;BME280;66044;53.142;17.962;2024-03-02T07:40:10;100613.61;;;8.16;80.89
77019;BME280;66044;53.142;17.962;2024-03-02T07:42:38;100616.36;;;8.23;80.82
77019;BME280;66044;53.142;17.962;2024-03-02T07:45:05;100615.90;;;8.30;80.87
77019;BME280;66044;53.142;17.962;2024-03-02T07:47:35;100615.42;;;8.39;80.69
77019;BME280;66044;53.142;17.962;2024-03-02T07:50:01;100610.44;;;8.51;80.36
77019;BME280;66044;53.142;17.962;2024-03-02T07:52:27;100610.30;;;8.66;80.28
77019;BME280;66044;53.142;17.962;2024-03-02T07:54:53;100613.20;;;8.88;80.07
77019;BME280;66044;53.142;17.962;2024-03-02T07:57:19;100619.34;;;9.15;79.57
77019;BME280;66044;53.142;17.962;2024-03-02T07:59:45;100617.50;;;9.47;79.13
77019;BME280;66044;53.142;17.962;2024-03-02T08:02:11;100614.97;;;9.80;78.93
77019;BME280;66044;53.142;17.962;2024-03-02T08:04:38;100618.34;;;10.12;78.15
77019;BME280;66044;53.142;17.962;2024-03-02T08:07:04;100619.27;;;10.43;77.82
77019;BME280;66044;53.142;17.962;2024-03-02T08:09:30;100617.72;;;10.71;77.32
77019;BME280;66044;53.142;17.962;2024-03-02T08:11:56;100623.39;;;10.94;76.76
77019;BME280;66044;53.142;17.962;2024-03-02T08:14:24;100623.82;;;11.07;75.99
77019;BME280;66044;53.142;17.962;2024-03-02T08:16:51;100629.86;;;11.20;75.43
77019;BME280;66044;53.142;17.962;2024-03-02T08:19:17;100629.20;;;11.30;75.23
77019;BME280;66044;53.142;17.962;2024-03-02T08:21:44;100626.45;;;11.28;74.54
77019;BME280;66044;53.142;17.962;2024-03-02T08:24:10;100630.21;;;11.23;74.27
77019;BME280;66044;53.142;17.962;2024-03-02T08:26:36;100632.30;;;11.37;73.84
77019;BME280;66044;53.142;17.962;2024-03-02T08:29:02;100638.49;;;11.60;73.43
77019;BME280;66044;53.142;17.962;2024-03-02T08:31:30;100640.00;;;11.81;73.23
77019;BME280;66044;53.142;17.962;2024-03-02T08:33:56;100639.06;;;11.93;72.66
77019;BME280;66044;53.142;17.962;2024-03-02T08:36:23;100641.77;;;12.03;72.23
77019;BME280;66044;53.142;17.962;2024-03-02T08:38:50;100639.71;;;12.08;71.73
77019;BME280;66044;53.142;17.962;2024-03-02T08:41:16;100640.42;;;12.07;71.08
77019;BME280;66044;53.142;17.962;2024-03-02T08:43:42;100631.80;;;12.01;71.05
77019;BME280;66044;53.142;17.962;2024-03-02T08:46:08;100629.36;;;12.02;70.78
77019;BME280;66044;53.142;17.962;2024-03-02T08:48:34;100629.14;;;12.10;70.64
77019;BME280;66044;53.142;17.962;2024-03-02T08:51:00;100631.83;;;12.26;70.55
77019;BME280;66044;53.142;17.962;2024-03-02T08:53:26;100630.60;;;12.44;70.24
77019;BME280;66044;53.142;17.962;2024-03-02T08:55:52;100634.05;;;12.56;70.15
77019;BME280;66044;53.142;17.962;2024-03-02T08:58:18;100640.38;;;12.61;69.87
77019;BME280;66044;53.142;17.962;2024-03-02T09:00:44;100642.98;;;12.66;69.74
77019;BME280;66044;53.142;17.962;2024-03-02T09:03:10;100648.31;;;12.72;69.57
77019;BME280;66044;53.142;17.962;2024-03-02T09:05:36;100654.86;;;12.77;69.27
77019;BME280;66044;53.142;17.962;2024-03-02T09:08:01;100650.66;;;12.79;68.88
77019;BME280;66044;53.142;17.962;2024-03-02T09:10:29;100651.80;;;12.81;68.51
77019;BME280;66044;53.142;17.962;2024-03-02T09:12:55;100652.14;;;12.85;68.40
77019;BME280;66044;53.142;17.962;2024-03-02T09:15:21;100650.59;;;12.87;68.17
77019;BME280;66044;53.142;17.962;2024-03-02T09:17:46;100655.20;;;12.84;67.75
77019;BME280;66044;53.142;17.962;2024-03-02T09:20:12;100663.02;;;12.83;67.76
77019;BME280;66044;53.142;17.962;2024-03-02T09:22:39;100666.83;;;12.82;67.46
77019;BME280;66044;53.142;17.962;2024-03-02T09:25:05;100665.29;;;12.81;67.23
77019;BME280;66044;53.142;17.962;2024-03-02T09:27:38;100659.34;;;12.83;67.15
77019;BME280;66044;53.142;17.962;2024-03-02T09:30:07;100657.87;;;12.80;67.04
77019;BME280;66044;53.142;17.962;2024-03-02T09:32:33;100656.14;;;12.85;66.79
77019;BME280;66044;53.142;17.962;2024-03-02T09:34:59;100653.54;;;12.88;66.42
77019;BME280;66044;53.142;17.962;2024-03-02T09:37:25;100658.66;;;12.89;66.43
77019;BME280;66044;53.142;17.962;2024-03-02T09:39:51;100657.87;;;12.83;66.06
77019;BME280;66044;53.142;17.962;2024-03-02T09:42:17;100649.77;;;12.82;66.17
77019;BME280;66044;53.142;17.962;2024-03-02T09:44:43;100639.05;;;12.88;66.31
77019;BME280;66044;53.142;17.962;2024-03-02T09:47:09;100651.75;;;12.92;65.98
77019;BME280;66044;53.142;17.962;2024-03-02T09:49:35;100654.77;;;12.88;65.86
77019;BME280;66044;53.142;17.962;2024-03-02T09:52:03;100650.27;;;12.87;65.77
77019;BME280;66044;53.142;17.962;2024-03-02T09:54:30;100657.92;;;12.88;65.45
77019;BME280;66044;53.142;17.962;2024-03-02T09:56:56;100656.49;;;12.94;65.43
77019;BME280;66044;53.142;17.962;2024-03-02T09:59:22;100652.39;;;12.99;65.24
77019;BME280;66044;53.142;17.962;2024-03-02T10:02:01;100659.34;;;13.02;65.14
77019;BME280;66044;53.142;17.962;2024-03-02T10:04:29;100659.86;;;12.98;64.97
77019;BME280;66044;53.142;17.962;2024-03-02T10:07:16;100664.18;;;12.91;64.67
77019;BME280;66044;53.142;17.962;2024-03-02T10:09:44;100663.41;;;12.81;64.92
77019;BME280;66044;53.142;17.962;2024-03-02T10:12:11;100660.61;;;12.76;64.84
77019;BME280;66044;53.142;17.962;2024-03-02T10:14:38;100658.61;;;12.79;64.95
77019;BME280;66044;53.142;17.962;2024-03-02T10:17:06;100659.47;;;12.82;65.14
77019;BME280;66044;53.142;17.962;2024-03-02T10:19:33;100657.61;;;12.82;64.99
77019;BME280;66044;53.142;17.962;2024-03-02T10:22:01;100654.84;;;12.79;64.82
77019;BME280;66044;53.142;17.962;2024-03-02T10:24:44;100652.14;;;12.79;64.86
77019;BME280;66044;53.142;17.962;2024-03-02T10:29:46;100650.61;;;12.95;65.03
77019;BME280;66044;53.142;17.962;2024-03-02T10:32:12;100651.63;;;13.02;64.96
77019;BME280;66044;53.142;17.962;2024-03-02T10:34:45;100654.20;;;13.05;64.80
77019;BME280;66044;53.142;17.962;2024-03-02T10:37:14;100653.11;;;13.05;64.53
77019;BME280;66044;53.142;17.962;2024-03-02T10:39:40;100648.98;;;13.06;64.47
77019;BME280;66044;53.142;17.962;2024-03-02T10:42:06;100639.06;;;13.04;64.43
77019;BME280;66044;53.142;17.962;2024-03-02T10:44:33;100632.98;;;13.10;64.57
77019;BME280;66044;53.142;17.962;2024-03-02T10:47:03;100637.61;;;13.12;64.38
77019;BME280;66044;53.142;17.962;2024-03-02T10:49:31;100637.73;;;13.16;64.09
77019;BME280;66044;53.142;17.962;2024-03-02T10:52:00;100635.83;;;13.17;63.90
77019;BME280;66044;53.142;17.962;2024-03-02T10:54:27;100638.58;;;13.22;64.08
77019;BME280;66044;53.142;17.962;2024-03-02T10:56:58;100636.61;;;13.26;63.82
77019;BME280;66044;53.142;17.962;2024-03-02T10:59:32;100635.01;;;13.26;63.74
77019;BME280;66044;53.142;17.962;2024-03-02T11:02:00;100623.70;;;13.27;63.89
77019;BME280;66044;53.142;17.962;2024-03-02T11:04:28;100627.59;;;13.28;63.88
77019;BME280;66044;53.142;17.962;2024-03-02T11:07:08;100632.69;;;13.26;63.83
77019;BME280;66044;53.142;17.962;2024-03-02T11:09:47;100628.27;;;13.25;63.94
77019;BME280;66044;53.142;17.962;2024-03-02T11:12:42;100622.90;;;13.23;63.86
77019;BME280;66044;53.142;17.962;2024-03-02T11:15:17;100628.45;;;13.20;64.09
77019;BME280;66044;53.142;17.962;2024-03-02T11:17:47;100624.83;;;13.24;64.22
77019;BME280;66044;53.142;17.962;2024-03-02T11:20:14;100628.70;;;13.26;63.93
77019;BME280;66044;53.142;17.962;2024-03-02T11:22:40;100633.21;;;13.23;64.01
77019;BME280;66044;53.142;17.962;2024-03-02T11:25:23;100631.76;;;13.20;64.00
77019;BME280;66044;53.142;17.962;2024-03-02T11:33:00;100625.73;;;13.25;64.45
77019;BME280;66044;53.142;17.962;2024-03-02T11:35:26;100620.59;;;13.24;64.31
77019;BME280;66044;53.142;17.962;2024-03-02T11:37:54;100616.26;;;13.23;64.30
77019;BME280;66044;53.142;17.962;2024-03-02T11:40:23;100617.20;;;13.18;64.16
77019;BME280;66044;53.142;17.962;2024-03-02T11:42:50;100616.77;;;13.13;64.49
77019;BME280;66044;53.142;17.962;2024-03-02T11:45:26;100621.77;;;13.16;64.56
77019;BME280;66044;53.142;17.962;2024-03-02T11:47:57;100621.28;;;13.20;64.64
77019;BME280;66044;53.142;17.962;2024-03-02T11:50:39;100620.24;;;13.25;64.72
77019;BME280;66044;53.142;17.962;2024-03-02T11:53:08;100623.61;;;13.27;64.40
77019;BME280;66044;53.142;17.962;2024-03-02T11:55:37;100621.98;;;13.24;64.49
77019;BME280;66044;53.142;17.962;2024-03-02T11:58:04;100623.58;;;13.22;64.38
77019;BME280;66044;53.142;17.962;2024-03-02T12:00:30;100620.05;;;13.20;64.31
77019;BME280;66044;53.142;17.962;2024-03-02T12:05:30;100617.60;;;13.18;64.58
77019;BME280;66044;53.142;17.962;2024-03-02T12:08:01;100611.48;;;13.20;64.59
77019;BME280;66044;53.142;17.962;2024-03-02T12:10:29;100608.73;;;13.18;64.48
77019;BME280;66044;53.142;17.962;2024-03-02T12:12:59;100608.09;;;13.17;64.62
77019;BME280;66044;53.142;17.962;2024-03-02T12:15:33;100607.05;;;13.21;64.65
77019;BME280;66044;53.142;17.962;2024-03-02T12:18:00;100610.41;;;13.23;64.45
77019;BME280;66044;53.142;17.962;2024-03-02T12:20:29;100604.66;;;13.25;64.44
77019;BME280;66044;53.142;17.962;2024-03-02T12:22:58;100605.54;;;13.26;64.28
77019;BME280;66044;53.142;17.962;2024-03-02T12:25:26;100607.18;;;13.20;64.44
77019;BME280;66044;53.142;17.962;2024-03-02T12:27:55;100608.67;;;13.15;64.31
77019;BME280;66044;53.142;17.962;2024-03-02T12:30:22;100607.38;;;13.13;64.36
77019;BME280;66044;53.142;17.962;2024-03-02T12:32:50;100605.34;;;13.15;64.54
77019;BME280;66044;53.142;17.962;2024-03-02T12:35:17;100603.08;;;13.20;64.49
77019;BME280;66044;53.142;17.962;2024-03-02T12:37:45;100603.74;;;13.25;64.49
77019;BME280;66044;53.142;17.962;2024-03-02T12:40:12;100597.89;;;13.31;64.56
77019;BME280;66044;53.142;17.962;2024-03-02T12:42:39;100597.75;;;13.37;64.32
77019;BME280;66044;53.142;17.962;2024-03-02T12:45:06;100593.86;;;13.41;64.17
77019;BME280;66044;53.142;17.962;2024-03-02T12:47:36;100594.33;;;13.50;64.10
77019;BME280;66044;53.142;17.962;2024-03-02T12:50:03;100594.30;;;13.56;63.82
77019;BME280;66044;53.142;17.962;2024-03-02T12:52:30;100591.48;;;13.60;63.77
77019;BME280;66044;53.142;17.962;2024-03-02T12:55:02;100590.98;;;13.64;63.54
77019;BME280;66044;53.142;17.962;2024-03-02T12:57:30;100592.45;;;13.65;63.34
77019;BME280;66044;53.142;17.962;2024-03-02T13:00:01;100596.55;;;13.68;63.58